Time;durP1;ratioP1;P1;durP2;ratioP2;P2;SDS_P1;SDS_P2;PMS_P1;PMS_P2;Temp;Humidity;BMP_temperature;BMP_pressure;BME280_temperature;BME280_humidity;BME280_pressure;Samples;Min_cycle;Max_cycle;Signal;HPM_P1;HPM_P2
2023/01/27 00:00:20;;;;;;;38.33;17.90;;;;;;;-2.75;100.00;98880.63;15308470;19;20545;-84
2023/01/27 00:05:45;;;;;;;34.30;17.02;;;;;;;-2.74;100.00;98877.06;15283768;19;20017;-82
2023/01/27 00:16:50;;;;;;;38.15;18.88;;;;;;;-2.75;100.00;98875.34;15313271;19;20038;-88
2023/01/27 00:28:21;;;;;;;59.30;19.88;;;;;;;-2.68;100.00;98863.63;15318791;19;20014;-81
2023/01/27 00:34:12;;;;;;;38.10;18.75;;;;;;;-2.64;100.00;98868.69;15311478;19;20019;-83
2023/01/27 00:40:02;;;;;;;35.58;18.65;;;;;;;-2.65;100.00;98869.63;15312114;19;20015;-83
2023/01/27 00:45:51;;;;;;;39.90;17.98;;;;;;;-2.63;100.00;98856.34;15309050;19;20007;-82
2023/01/27 00:51:16;;;;;;;42.05;19.67;;;;;;;-2.60;100.00;98865.94;15309745;19;20031;-81
2023/01/27 00:56:41;;;;;;;39.67;18.80;;;;;;;-2.64;100.00;98858.16;15300236;19;20014;-82
2023/01/27 01:02:09;;;;;;;44.63;17.83;;;;;;;-2.56;100.00;98863.09;15298236;19;20478;-83
2023/01/27 17:30:07;;;;;;;6.78;4.80;;;;;;;-0.04;100.00;99217.25;15307815;19;20010;-87
2023/01/27 17:35:38;;;;;;;5.13;4.72;;;;;;;-0.02;100.00;99216.22;15318846;19;20956;-87
2023/01/27 17:41:04;;;;;;;3.90;3.60;;;;;;;-0.01;100.00;99233.84;15319174;19;20089;-87
2023/01/27 17:46:36;;;;;;;3.90;3.60;;;;;;;0.00;100.00;99234.72;15320321;19;20014;-88
2023/01/27 17:51:59;;;;;;;3.50;3.20;;;;;;;0.02;100.00;99242.59;15318366;19;20018;-88
2023/01/27 17:57:31;;;;;;;3.38;3.08;;;;;;;0.04;100.00;99246.03;15314877;19;20010;-88
2023/01/27 18:03:06;;;;;;;3.50;3.20;;;;;;;0.04;100.00;99246.88;15320998;19;20026;-89
2023/01/27 18:08:38;;;;;;;4.43;4.03;;;;;;;0.06;100.00;99244.16;15317771;19;20022;-89
2023/01/27 18:14:06;;;;;;;5.20;4.70;;;;;;;0.10;100.00;99256.31;15319696;19;20014;-89
2023/01/27 18:19:34;;;;;;;4.47;4.07;;;;;;;0.10;100.00;99248.38;15313617;19;20031;-90
2023/01/27 18:25:06;;;;;;;3.92;3.63;;;;;;;0.10;100.00;99248.38;15324175;19;20018;-89
2023/01/27 18:30:39;;;;;;;5.30;4.80;;;;;;;0.12;100.00;99244.69;15318054;19;20018;-88
2023/01/27 18:36:04;;;;;;;4.97;4.55;;;;;;;0.13;100.00;99257.00;15317428;19;20092;-88
2023/01/27 18:41:38;;;;;;;4.82;4.43;;;;;;;0.14;100.00;99257.88;15317338;19;20378;-88
2023/01/27 18:47:26;;;;;;;3.90;3.60;;;;;;;0.16;100.00;99269.28;15314519;19;20462;-89
2023/01/27 18:53:01;;;;;;;3.20;2.90;;;;;;;0.17;100.00;99268.34;15317458;19;20011;-89
2023/01/27 18:58:32;;;;;;;3.72;3.42;;;;;;;0.16;100.00;99274.56;15326440;19;20007;-90
2023/01/27 19:03:58;;;;;;;4.07;3.78;;;;;;;0.17;100.00;99268.34;15326405;19;20014;-89
2023/01/27 19:09:26;;;;;;;5.53;5.03;;;;;;;0.15;100.00;99272.84;15319969;19;20041;-90
2023/01/27 19:14:57;;;;;;;5.97;5.47;;;;;;;0.17;100.00;99275.41;15312711;19;20086;-89
2023/01/27 19:20:25;;;;;;;5.60;5.10;;;;;;;0.14;100.00;99284.38;15308749;19;20019;-89
2023/01/27 19:25:55;;;;;;;6.72;4.88;;;;;;;0.15;100.00;99279.00;15301485;19;20046;-88
2023/01/27 19:31:32;;;;;;;7.82;7.03;;;;;;;0.17;100.00;99284.25;15307398;19;20030;-89
2023/01/27 19:36:59;;;;;;;10.10;8.77;;;;;;;0.20;100.00;99288.53;15306682;19;20022;-89
2023/01/27 19:42:26;;;;;;;10.82;9.73;;;;;;;0.20;100.00;99283.22;15308350;19;20018;-91
2023/01/27 19:47:58;;;;;;;11.73;10.52;;;;;;;0.20;100.00;99281.44;15309255;19;20499;-89
2023/01/27 19:53:27;;;;;;;11.63;9.45;;;;;;;0.19;100.00;99289.47;15320480;19;20034;-89
2023/01/27 19:58:53;;;;;;;12.50;10.23;;;;;;;0.16;100.00;99290.47;15304516;19;20019;-90
2023/01/27 20:04:25;;;;;;;12.93;11.10;;;;;;;0.15;100.00;99294.06;15304309;19;20025;-89
2023/01/27 20:09:55;;;;;;;20.85;13.00;;;;;;;0.16;100.00;99303.72;15312725;19;20015;-88
2023/01/27 20:15:12;;;;;;;18.30;13.38;;;;;;;0.15;100.00;99296.72;15326819;19;20018;-93
2023/01/27 20:20:48;;;;;;;30.50;15.30;;;;;;;0.15;100.00;99312.59;15376010;19;20007;-91
2023/01/27 20:26:14;;;;;;;26.88;16.17;;;;;;;0.14;100.00;99310.88;15371826;19;20026;-92
2023/01/27 20:31:48;;;;;;;22.58;16.58;;;;;;;0.14;100.00;99311.72;15362265;19;20010;-91
2023/01/27 20:37:20;;;;;;;26.10;17.17;;;;;;;0.12;100.00;99313.59;15360537;19;20034;-92
2023/01/27 20:42:45;;;;;;;29.67;17.88;;;;;;;0.12;100.00;99313.59;15361229;19;20026;-91
2023/01/27 20:48:27;;;;;;;27.27;16.88;;;;;;;0.11;100.00;99324.28;15372333;19;20747;-92
2023/01/27 20:53:58;;;;;;;23.17;16.23;;;;;;;0.11;100.00;99337.53;15368364;19;20009;-92
2023/01/27 21:05:19;;;;;;;14.27;11.70;;;;;;;0.04;100.00;99341.41;15366241;19;20018;-92
2023/01/27 21:11:20;;;;;;;13.23;10.68;;;;;;;0.03;100.00;99337.03;15369871;19;20003;-90
2023/01/27 21:17:02;;;;;;;11.57;10.27;;;;;;;0.01;100.00;99349.50;15365862;19;20026;-93
2023/01/27 21:22:36;;;;;;;10.77;9.43;;;;;;;0.00;100.00;99340.69;15369983;19;20009;-93
2023/01/27 21:28:04;;;;;;;9.10;8.20;;;;;;;0.00;100.00;99332.75;15371069;19;20014;-94
2023/01/27 21:39:19;;;;;;;7.65;6.85;;;;;;;-0.01;100.00;99344.28;15361717;19;19982;-93
2023/01/27 21:50:49;;;;;;;7.32;6.63;;;;;;;-0.01;100.00;99345.13;15365185;19;20053;-93
2023/01/27 21:56:26;;;;;;;6.22;5.63;;;;;;;0.01;100.00;99338.88;15366757;19;19998;-94
2023/01/27 22:02:12;;;;;;;6.63;6.03;;;;;;;0.02;100.00;99335.31;15377444;19;20017;-92
2023/01/27 22:07:58;;;;;;;7.13;6.47;;;;;;;0.00;100.00;99338.03;15367822;19;20010;-95
2023/01/27 22:13:35;;;;;;;7.47;6.43;;;;;;;0.01;100.00;99338.88;15366659;19;20030;-95
2023/01/27 22:19:39;;;;;;;7.40;6.70;;;;;;;0.05;100.00;99332.53;15368562;19;20010;-94
2023/01/27 22:30:48;;;;;;;7.03;6.32;;;;;;;0.05;100.00;99327.22;15307631;19;19998;-92
2023/01/27 22:36:17;;;;;;;7.28;6.60;;;;;;;0.06;100.00;99316.53;15310409;19;20097;-91
2023/01/27 22:41:45;;;;;;;7.15;6.53;;;;;;;0.07;100.00;99312.09;15318791;19;20006;-88
2023/01/27 22:47:21;;;;;;;5.35;4.95;;;;;;;0.08;100.00;99311.16;15318126;19;20469;-89
2023/01/27 23:04:25;;;;;;;3.85;3.55;;;;;;;0.03;100.00;99313.19;15303757;19;19979;-89
2023/01/27 23:10:01;;;;;;;5.95;5.45;;;;;;;0.01;100.00;99315.88;15304176;19;20017;-93
2023/01/27 23:15:27;;;;;;;13.63;9.35;;;;;;;0.06;100.00;99315.69;15299206;19;20010;-88
2023/01/27 23:26:52;;;;;;;41.17;13.00;;;;;;;0.02;100.00;99317.63;15300619;19;20003;-92
2023/01/27 23:37:47;;;;;;;25.95;13.50;;;;;;;0.05;100.00;99308.69;15335269;19;20006;-89
2023/01/27 23:43:19;;;;;;;22.13;12.57;;;;;;;0.05;100.00;99313.97;15308771;19;20092;-89
2023/01/27 23:48:52;;;;;;;50.58;14.07;;;;;;;0.06;100.00;99308.59;15316430;19;20023;-88
2023/01/27 23:54:22;;;;;;;56.33;15.00;;;;;;;0.04;100.00;99320.22;15312702;19;20003;-88
